createdAt,value
2022-09-23T00:01:14.931Z,1.60
2022-09-23T00:03:45.536Z,1.63
2022-09-23T00:06:16.787Z,0.73
2022-09-23T00:08:44.273Z,3.13
2022-09-23T00:11:14.752Z,1.10
2022-09-23T00:13:44.623Z,1.70
2022-09-23T00:16:15.669Z,1.37
2022-09-23T00:18:43.845Z,1.13
2022-09-23T00:21:13.324Z,2.10
2022-09-23T00:23:41.867Z,3.00
2022-09-23T00:26:12.215Z,0.67
2022-09-23T00:28:39.656Z,1.73
2022-09-23T00:31:10.532Z,1.63
2022-09-23T00:33:38.470Z,0.40
2022-09-23T00:36:07.449Z,0.60
2022-09-23T00:38:34.915Z,1.43
2022-09-23T00:41:05.143Z,1.63
2022-09-23T00:43:57.956Z,1.00
2022-09-23T00:46:43.778Z,0.90
2022-09-23T00:51:45.098Z,1.17
2022-09-23T00:54:12.488Z,2.13
2022-09-23T00:56:40.510Z,0.70
2022-09-23T00:59:10.131Z,0.40
2022-09-23T01:01:38.773Z,0.63
2022-09-23T01:04:08.065Z,0.50
2022-09-23T01:06:35.404Z,0.37
2022-09-23T01:09:03.015Z,0.60
2022-09-23T01:11:42.780Z,0.50
2022-09-23T01:14:37.452Z,0.60
2022-09-23T01:17:13.600Z,0.60
2022-09-23T01:20:09.395Z,2.67
2022-09-23T01:22:49.622Z,1.00
2022-09-23T01:25:47.342Z,0.77
2022-09-23T01:28:39.423Z,0.60
2022-09-23T01:31:46.173Z,1.07
2022-09-23T01:34:25.315Z,1.97
2022-09-23T01:36:59.304Z,1.90
2022-09-23T01:40:06.548Z,0.70
2022-09-23T01:42:43.246Z,0.70
2022-09-23T01:45:20.003Z,0.30
2022-09-23T01:47:55.230Z,2.00
2022-09-23T01:50:48.587Z,0.40
2022-09-23T01:53:22.286Z,0.40
2022-09-23T01:55:53.245Z,0.87
2022-09-23T01:58:43.285Z,0.83
2022-09-23T02:01:17.776Z,1.37
2022-09-23T02:03:59.804Z,0.70
2022-09-23T02:06:33.753Z,0.60
2022-09-23T02:09:06.307Z,1.23
2022-09-23T02:11:36.515Z,0.30
2022-09-23T02:14:09.890Z,0.80
2022-09-23T02:16:44.034Z,0.80
2022-09-23T02:19:35.258Z,0.60
2022-09-23T02:22:09.611Z,0.50
2022-09-23T02:24:39.396Z,1.60
2022-09-23T02:27:30.581Z,1.77
2022-09-23T02:30:20.251Z,0.40
2022-09-23T02:33:11.948Z,2.47
2022-09-23T02:35:49.284Z,3.10
2022-09-23T02:38:41.255Z,0.60
2022-09-23T02:41:15.059Z,2.07
2022-09-23T02:44:24.189Z,2.20
2022-09-23T02:46:53.396Z,0.67
2022-09-23T02:49:40.818Z,0.97
2022-09-23T02:52:08.973Z,1.33
2022-09-23T02:54:37.472Z,1.63
2022-09-23T02:57:07.388Z,4.03
2022-09-23T02:59:36.098Z,0.87
2022-09-23T03:02:42.921Z,0.60
2022-09-23T03:05:31.615Z,2.50
2022-09-23T03:08:38.564Z,2.70
2022-09-23T03:11:08.750Z,1.83
2022-09-23T03:14:17.918Z,3.43
2022-09-23T03:17:10.649Z,3.23
2022-09-23T03:20:17.675Z,2.47
2022-09-23T03:22:52.433Z,5.60
2022-09-23T03:25:23.976Z,5.22
2022-09-23T03:27:57.575Z,3.87
2022-09-23T03:30:25.324Z,5.47
2022-09-23T03:32:52.904Z,2.97
2022-09-23T03:35:24.236Z,3.00
2022-09-23T03:38:02.783Z,2.57
2022-09-23T03:40:41.788Z,3.23
2022-09-23T03:43:11.845Z,2.80
2022-09-23T03:45:39.536Z,1.43
2022-09-23T03:48:07.261Z,5.67
2022-09-23T03:50:35.818Z,5.13
2022-09-23T03:53:03.226Z,2.40
2022-09-23T03:55:30.885Z,0.60
2022-09-23T03:58:00.292Z,1.97
2022-09-23T04:00:27.882Z,2.67
2022-09-23T04:02:55.193Z,1.43
2022-09-23T04:05:23.156Z,2.43
2022-09-23T04:07:51.220Z,2.67
2022-09-23T04:10:18.597Z,2.03
2022-09-23T04:12:45.879Z,1.87
2022-09-23T04:15:13.236Z,4.53
2022-09-23T04:17:40.973Z,4.40
2022-09-23T04:20:08.572Z,2.37
2022-09-23T04:22:35.905Z,1.47
2022-09-23T04:25:03.387Z,2.13
2022-09-23T04:27:35.431Z,1.70
2022-09-23T04:30:05.259Z,3.77
2022-09-23T04:32:32.642Z,4.10
2022-09-23T04:35:00.015Z,2.43
2022-09-23T04:37:27.425Z,2.30
2022-09-23T04:39:55.904Z,0.77
2022-09-23T04:42:23.310Z,0.40
2022-09-23T04:44:50.679Z,2.33
2022-09-23T04:47:19.390Z,0.83
2022-09-23T04:49:47.057Z,3.97
2022-09-23T04:52:14.402Z,3.10
2022-09-23T04:54:41.827Z,2.93
2022-09-23T04:57:11.207Z,5.60
2022-09-23T04:59:38.583Z,1.10
2022-09-23T05:02:06.028Z,5.60
2022-09-23T05:04:34.452Z,2.77
2022-09-23T05:07:13.287Z,0.50
2022-09-23T05:17:28.041Z,2.13
2022-09-23T05:26:02.297Z,1.47
2022-09-23T05:28:33.354Z,3.37
2022-09-23T05:31:21.166Z,1.30
2022-09-23T05:33:52.160Z,3.67
2022-09-23T05:36:21.406Z,3.80
2022-09-23T05:38:50.208Z,1.03
2022-09-23T05:41:18.880Z,1.57
2022-09-23T05:43:47.475Z,1.93
2022-09-23T05:46:36.112Z,2.17
2022-09-23T05:49:05.668Z,0.30
2022-09-23T05:51:35.857Z,1.37
2022-09-23T05:54:04.484Z,0.30
2022-09-23T05:56:33.309Z,0.63
2022-09-23T05:59:02.188Z,1.83
2022-09-23T06:01:34.185Z,0.37
2022-09-23T06:04:02.978Z,0.30
2022-09-23T06:06:35.090Z,1.07
2022-09-23T06:09:02.823Z,1.50
2022-09-23T06:11:32.554Z,0.80
2022-09-23T06:14:14.047Z,3.30
2022-09-23T06:16:43.654Z,2.10
2022-09-23T06:19:13.804Z,1.43
2022-09-23T06:21:41.580Z,2.73
2022-09-23T06:24:09.487Z,0.67
2022-09-23T06:26:38.441Z,1.23
2022-09-23T06:29:11.938Z,0.33
2022-09-23T06:31:41.345Z,0.80
2022-09-23T06:34:13.542Z,1.07
2022-09-23T06:36:45.069Z,1.80
2022-09-23T06:39:14.557Z,0.33
2022-09-23T06:41:42.006Z,0.20
2022-09-23T06:44:09.889Z,1.53
2022-09-23T06:46:37.395Z,0.80
2022-09-23T06:49:04.850Z,0.73
2022-09-23T06:51:32.452Z,0.97
2022-09-23T06:54:00.102Z,0.93
2022-09-23T06:56:27.538Z,0.30
2022-09-23T06:58:54.883Z,1.13
2022-09-23T07:01:23.388Z,0.20
2022-09-23T07:03:50.898Z,1.57
2022-09-23T07:06:18.523Z,0.93
2022-09-23T07:08:48.454Z,0.30
2022-09-23T07:11:16.359Z,0.50
2022-09-23T07:13:43.822Z,0.20
2022-09-23T07:16:12.016Z,0.10
2022-09-23T07:18:40.912Z,0.50
2022-09-23T07:21:15.545Z,1.40
2022-09-23T07:23:46.074Z,0.63
2022-09-23T07:26:14.675Z,0.10
2022-09-23T07:28:42.134Z,1.03
2022-09-23T07:31:12.353Z,0.50
2022-09-23T07:33:43.804Z,0.73
2022-09-23T07:36:14.479Z,0.20
2022-09-23T07:38:45.443Z,0.43
2022-09-23T07:41:15.743Z,0.37
2022-09-23T07:43:44.234Z,0.30
2022-09-23T07:46:16.566Z,0.10
2022-09-23T07:48:44.618Z,0.13
2022-09-23T07:51:22.835Z,0.10
2022-09-23T07:53:51.623Z,0.10
2022-09-23T07:56:20.583Z,0.10
2022-09-23T07:59:04.538Z,0.10
2022-09-23T08:01:54.273Z,0.40
2022-09-23T08:04:26.010Z,0.10
2022-09-23T08:06:56.685Z,0.10
2022-09-23T08:09:26.670Z,0.10
2022-09-23T08:11:54.020Z,0.10
2022-09-23T08:14:22.471Z,0.20
2022-09-23T08:16:49.956Z,0.00
2022-09-23T08:19:19.877Z,0.23
2022-09-23T08:21:47.710Z,0.27
2022-09-23T08:24:17.849Z,0.00
2022-09-23T08:26:45.949Z,0.30
2022-09-23T08:29:18.008Z,0.00
2022-09-23T08:31:45.361Z,0.10
2022-09-23T08:34:12.820Z,0.30
2022-09-23T08:36:40.447Z,0.10
2022-09-23T08:39:07.927Z,2.37
2022-09-23T08:42:14.769Z,0.10
2022-09-23T08:44:53.492Z,0.20
2022-09-23T08:47:53.094Z,0.50
2022-09-23T08:50:24.495Z,0.17
2022-09-23T08:53:15.115Z,0.33
2022-09-23T08:55:46.924Z,0.00
2022-09-23T08:58:53.674Z,0.00
2022-09-23T09:01:45.350Z,0.00
2022-09-23T09:04:40.459Z,0.10
2022-09-23T09:07:38.077Z,0.10
2022-09-23T09:10:26.926Z,0.10
2022-09-23T09:13:03.882Z,0.30
2022-09-23T09:15:31.599Z,0.10
2022-09-23T09:18:24.600Z,0.20
2022-09-23T09:21:08.569Z,0.10
2022-09-23T09:24:00.398Z,0.00
2022-09-23T09:26:32.391Z,0.10
2022-09-23T09:29:35.041Z,0.50
2022-09-23T09:32:16.252Z,0.10
2022-09-23T09:34:53.193Z,0.10
2022-09-23T09:37:33.693Z,0.10
2022-09-23T09:40:01.116Z,0.23
2022-09-23T09:42:40.401Z,0.73
2022-09-23T09:45:33.911Z,0.10
2022-09-23T09:48:27.482Z,0.10
2022-09-23T09:50:56.110Z,0.30
2022-09-23T09:53:42.934Z,0.00
2022-09-23T09:56:14.929Z,0.10
2022-09-23T09:58:51.894Z,0.10
2022-09-23T10:01:38.886Z,0.10
2022-09-23T10:04:22.624Z,0.20
2022-09-23T10:07:14.616Z,0.30
2022-09-23T10:09:49.890Z,0.77
2022-09-23T10:12:20.328Z,0.40
2022-09-23T10:14:51.432Z,0.20
2022-09-23T10:17:31.911Z,0.50
2022-09-23T10:20:02.785Z,0.23
2022-09-23T10:22:34.146Z,0.10
2022-09-23T10:25:07.571Z,0.50
2022-09-23T10:27:36.734Z,0.10
2022-09-23T10:30:27.688Z,0.73
2022-09-23T10:32:57.260Z,0.10
2022-09-23T10:35:29.638Z,0.40
2022-09-23T10:38:16.846Z,0.10
2022-09-23T10:41:04.651Z,0.20
2022-09-23T10:44:28.265Z,0.10
2022-09-23T10:47:28.202Z,0.10
2022-09-23T10:50:20.778Z,0.00
2022-09-23T10:53:19.936Z,0.23
2022-09-23T10:56:26.754Z,0.00
2022-09-23T10:59:29.238Z,0.10
2022-09-23T11:02:36.049Z,0.00
2022-09-23T11:05:36.074Z,0.00
2022-09-23T11:08:42.887Z,0.00
2022-09-23T11:11:23.291Z,0.00
2022-09-23T11:14:18.700Z,0.20
2022-09-23T11:17:17.324Z,0.10
2022-09-23T11:20:14.617Z,0.97
2022-09-23T11:23:21.877Z,2.00
2022-09-23T11:26:15.161Z,3.17
2022-09-23T11:29:10.196Z,0.77
2022-09-23T11:32:17.081Z,0.80
2022-09-23T11:34:59.980Z,0.20
2022-09-23T11:37:33.483Z,0.00
2022-09-23T11:40:35.222Z,0.00
2022-09-23T11:43:33.670Z,0.20
2022-09-23T11:46:24.294Z,0.40
2022-09-23T11:49:17.078Z,1.27
2022-09-23T11:52:23.863Z,0.10
2022-09-23T11:55:01.564Z,5.97
2022-09-23T11:58:22.993Z,0.43
2022-09-23T12:01:01.297Z,1.67
2022-09-23T12:03:52.072Z,0.20
2022-09-23T12:06:27.206Z,0.77
2022-09-23T12:09:02.894Z,0.10
2022-09-23T12:11:41.594Z,1.80
2022-09-23T12:14:35.771Z,0.20
2022-09-23T12:17:31.881Z,0.00
2022-09-23T12:20:35.156Z,0.00
2022-09-23T12:23:30.180Z,0.00
2022-09-23T12:26:02.104Z,0.10
2022-09-23T12:28:40.086Z,0.00
2022-09-23T12:31:14.333Z,0.07
2022-09-23T12:33:48.697Z,0.00
2022-09-23T12:36:16.116Z,0.00
2022-09-23T12:38:53.634Z,0.00
2022-09-23T12:41:42.707Z,0.00
2022-09-23T12:44:33.420Z,0.00
2022-09-23T12:47:36.642Z,0.00
2022-09-23T12:50:43.717Z,0.40
2022-09-23T12:53:50.970Z,0.00
2022-09-23T12:56:21.212Z,0.00
2022-09-23T12:59:27.952Z,0.63
2022-09-23T13:01:56.249Z,0.47
2022-09-23T13:05:13.078Z,0.10
2022-09-23T13:10:36.400Z,1.90
2022-09-23T13:13:03.889Z,0.27
2022-09-23T13:15:34.780Z,1.07
2022-09-23T13:18:41.576Z,0.00
2022-09-23T13:21:18.287Z,0.00
2022-09-23T13:24:26.429Z,1.07
2022-09-23T13:27:14.494Z,0.40
2022-09-23T13:30:04.346Z,0.20
2022-09-23T13:32:37.148Z,0.07
2022-09-23T13:35:27.465Z,0.17
2022-09-23T13:37:55.350Z,0.00
2022-09-23T13:40:27.282Z,0.00
2022-09-23T13:43:18.082Z,1.40
2022-09-23T13:45:45.610Z,0.10
2022-09-23T13:48:15.505Z,0.03
2022-09-23T13:50:48.923Z,0.03
2022-09-23T13:53:25.634Z,0.37
2022-09-23T13:56:07.887Z,0.83
2022-09-23T13:58:36.569Z,0.10
2022-09-23T14:01:12.958Z,0.10
2022-09-23T14:03:40.889Z,0.00
2022-09-23T14:06:14.618Z,0.00
2022-09-23T14:08:46.106Z,0.17
2022-09-23T14:11:17.136Z,0.00
2022-09-23T14:13:45.709Z,0.27
2022-09-23T14:16:15.230Z,1.13
2022-09-23T14:18:45.982Z,0.10
2022-09-23T14:21:37.642Z,0.10
2022-09-23T14:24:32.820Z,0.27
2022-09-23T14:27:29.274Z,0.00
2022-09-23T14:29:56.946Z,0.10
2022-09-23T14:32:27.655Z,0.17
2022-09-23T14:35:26.131Z,0.20
2022-09-23T14:38:18.055Z,1.10
2022-09-23T14:41:14.993Z,0.10
2022-09-23T14:44:02.948Z,0.63
2022-09-23T14:46:34.452Z,0.10
2022-09-23T14:49:20.222Z,0.23
2022-09-23T14:52:07.109Z,0.20
2022-09-23T14:54:54.472Z,0.10
2022-09-23T14:57:42.970Z,2.37
2022-09-23T15:00:20.323Z,0.07
2022-09-23T15:03:11.466Z,0.10
2022-09-23T15:05:46.351Z,1.80
2022-09-23T15:08:20.267Z,0.10
2022-09-23T15:10:48.172Z,0.10
2022-09-23T15:13:19.573Z,0.10
2022-09-23T15:15:47.040Z,0.30
2022-09-23T15:18:36.630Z,0.50
2022-09-23T15:21:21.989Z,0.20
2022-09-23T15:23:52.175Z,0.10
2022-09-23T15:26:25.539Z,1.50
2022-09-23T15:28:55.755Z,0.63
2022-09-23T15:31:26.819Z,0.17
2022-09-23T15:33:56.072Z,0.10
2022-09-23T15:36:26.390Z,0.60
2022-09-23T15:38:56.173Z,0.10
2022-09-23T15:41:24.695Z,0.20
2022-09-23T15:43:51.897Z,0.10
2022-09-23T15:46:22.505Z,1.07
2022-09-23T15:48:58.885Z,0.20
2022-09-23T15:51:27.701Z,0.03
2022-09-23T15:53:56.544Z,0.10
2022-09-23T15:56:25.156Z,0.30
2022-09-23T15:58:52.583Z,0.20
2022-09-23T16:01:28.338Z,0.10
2022-09-23T16:03:56.029Z,0.60
2022-09-23T16:06:24.457Z,0.40
2022-09-23T16:08:53.018Z,0.43
2022-09-23T16:11:24.677Z,0.20
2022-09-23T16:13:52.356Z,0.70
2022-09-23T16:16:23.257Z,0.10
2022-09-23T16:18:52.222Z,0.13
2022-09-23T16:21:24.916Z,0.10
2022-09-23T16:23:53.508Z,0.43
2022-09-23T16:26:43.309Z,0.60
2022-09-23T16:29:11.754Z,0.20
2022-09-23T16:31:39.604Z,0.10
2022-09-23T16:34:09.839Z,0.40
2022-09-23T16:36:42.111Z,1.63
2022-09-23T16:39:12.847Z,0.50
2022-09-23T16:41:40.452Z,0.30
2022-09-23T16:44:09.572Z,0.83
2022-09-23T16:46:42.966Z,1.17
2022-09-23T16:49:12.224Z,1.03
2022-09-23T16:51:39.755Z,1.57
2022-09-23T16:54:10.443Z,1.03
2022-09-23T16:56:40.561Z,1.33
2022-09-23T16:59:08.077Z,1.20
2022-09-23T17:01:55.559Z,3.07
2022-09-23T17:04:22.756Z,2.13
2022-09-23T17:06:54.005Z,1.50
2022-09-23T17:09:26.865Z,2.57
2022-09-23T17:12:20.007Z,3.77
2022-09-23T17:14:48.673Z,0.73
2022-09-23T17:17:16.164Z,1.33
2022-09-23T17:19:43.793Z,0.67
2022-09-23T17:22:11.200Z,1.10
2022-09-23T17:24:38.759Z,1.40
2022-09-23T17:27:11.241Z,0.40
2022-09-23T17:29:41.608Z,2.30
2022-09-23T17:32:09.719Z,0.70
2022-09-23T17:34:40.214Z,1.30
2022-09-23T17:37:10.617Z,1.47
2022-09-23T17:39:38.643Z,0.53
2022-09-23T17:42:17.569Z,0.27
2022-09-23T17:44:46.021Z,1.13
2022-09-23T17:47:24.218Z,1.07
2022-09-23T17:49:53.033Z,1.37
2022-09-23T17:52:20.988Z,0.83
2022-09-23T17:54:48.643Z,3.00
2022-09-23T17:57:16.297Z,0.37
2022-09-23T17:59:46.772Z,0.43
2022-09-23T18:02:15.833Z,0.50
2022-09-23T18:04:43.496Z,1.50
2022-09-23T18:07:11.416Z,1.67
2022-09-23T18:09:39.140Z,0.80
2022-09-23T18:12:08.710Z,1.73
2022-09-23T18:14:37.423Z,0.60
2022-09-23T18:17:04.892Z,2.20
2022-09-23T18:19:33.358Z,1.43
2022-09-23T18:22:06.526Z,1.43
2022-09-23T18:24:38.019Z,3.00
2022-09-23T18:27:06.652Z,2.17
2022-09-23T18:29:34.891Z,1.70
2022-09-23T18:32:02.642Z,1.80
2022-09-23T18:34:30.733Z,0.73
2022-09-23T18:36:57.884Z,2.20
2022-09-23T18:39:25.306Z,2.27
2022-09-23T18:41:52.781Z,0.87
2022-09-23T18:44:20.195Z,2.60
2022-09-23T18:46:47.299Z,0.67
2022-09-23T18:49:34.306Z,2.33
2022-09-23T18:52:01.897Z,2.80
2022-09-23T18:54:30.478Z,0.70
2022-09-23T18:56:59.890Z,2.90
2022-09-23T18:59:29.891Z,1.53
2022-09-23T19:01:57.498Z,2.80
2022-09-23T19:04:26.898Z,2.80
2022-09-23T19:06:56.697Z,4.27
2022-09-23T19:09:24.852Z,2.70
2022-09-23T19:11:52.686Z,4.17
2022-09-23T19:14:20.230Z,2.27
2022-09-23T19:16:49.298Z,3.33
2022-09-23T19:19:17.081Z,5.63
2022-09-23T19:21:44.628Z,1.37
2022-09-23T19:24:16.005Z,2.87
2022-09-23T19:26:44.101Z,2.20
2022-09-23T19:29:16.585Z,1.10
2022-09-23T19:31:44.257Z,3.43
2022-09-23T19:34:16.069Z,5.50
2022-09-23T19:36:45.098Z,5.67
2022-09-23T19:39:17.103Z,2.93
2022-09-23T19:41:44.491Z,3.77
2022-09-23T19:44:11.999Z,5.53
2022-09-23T19:46:41.996Z,3.60
2022-09-23T19:49:11.237Z,5.17
2022-09-23T19:51:39.111Z,3.13
2022-09-23T19:54:07.438Z,6.27
2022-09-23T19:56:35.143Z,2.93
2022-09-23T19:59:03.402Z,1.50
2022-09-23T20:01:32.180Z,3.37
2022-09-23T20:03:59.989Z,4.30
2022-09-23T20:06:32.372Z,3.83
2022-09-23T20:09:01.033Z,5.43
2022-09-23T20:11:28.950Z,3.50
2022-09-23T20:14:01.348Z,3.30
2022-09-23T20:16:32.637Z,3.40
2022-09-23T20:19:02.977Z,3.73
2022-09-23T20:21:39.776Z,5.17
2022-09-23T20:24:09.947Z,2.13
2022-09-23T20:26:57.442Z,1.83
2022-09-23T20:29:25.420Z,4.33
2022-09-23T20:31:53.089Z,2.53
2022-09-23T20:34:21.601Z,4.63
2022-09-23T20:37:10.254Z,1.50
2022-09-23T20:39:40.853Z,3.67
2022-09-23T20:42:09.408Z,5.07
2022-09-23T20:44:39.499Z,3.73
2022-09-23T20:47:17.623Z,6.27
2022-09-23T20:49:49.804Z,3.10
2022-09-23T20:52:18.273Z,3.90
2022-09-23T20:54:45.807Z,6.63
2022-09-23T20:57:15.400Z,2.60
2022-09-23T20:59:43.583Z,5.93
2022-09-23T21:02:11.600Z,3.27
2022-09-23T21:04:39.366Z,7.60
2022-09-23T21:07:07.531Z,5.33
2022-09-23T21:09:36.818Z,4.17
2022-09-23T21:12:04.544Z,6.10
2022-09-23T21:14:33.257Z,2.40
2022-09-23T21:17:00.946Z,2.93
2022-09-23T21:19:28.505Z,3.80
2022-09-23T21:21:56.313Z,2.70
2022-09-23T21:24:53.482Z,5.10
2022-09-23T21:27:11.773Z,6.00
2022-09-23T21:29:40.390Z,2.37
2022-09-23T21:32:07.872Z,2.93
2022-09-23T21:34:35.492Z,6.83
2022-09-23T21:37:03.426Z,5.10
2022-09-23T21:39:30.951Z,6.10
2022-09-23T21:41:58.456Z,6.43
2022-09-23T21:44:26.018Z,3.63
2022-09-23T21:46:54.501Z,3.97
2022-09-23T21:49:21.933Z,4.30
2022-09-23T21:51:56.111Z,5.23
2022-09-23T21:54:24.009Z,3.50
2022-09-23T21:56:54.857Z,7.23
2022-09-23T21:59:22.259Z,4.00
2022-09-23T22:01:54.046Z,4.80
2022-09-23T22:04:21.921Z,7.83
2022-09-23T22:06:49.440Z,3.23
2022-09-23T22:09:19.485Z,4.87
2022-09-23T22:12:06.970Z,5.57
2022-09-23T22:14:34.463Z,3.67
2022-09-23T22:17:03.946Z,6.27
2022-09-23T22:19:35.377Z,4.67
2022-09-23T22:22:03.515Z,4.13
2022-09-23T22:24:30.872Z,6.17
2022-09-23T22:26:58.377Z,6.50
2022-09-23T22:29:48.381Z,5.27
2022-09-23T22:32:35.733Z,4.23
2022-09-23T22:35:03.231Z,3.03
2022-09-23T22:37:36.054Z,4.60
2022-09-23T22:40:06.598Z,3.60
2022-09-23T22:42:34.288Z,6.13
2022-09-23T22:45:01.690Z,3.50
2022-09-23T22:47:29.188Z,4.23
2022-09-23T22:49:56.612Z,7.27
2022-09-23T22:52:24.688Z,5.50
2022-09-23T22:54:53.044Z,5.47
2022-09-23T22:57:20.630Z,6.40
2022-09-23T22:59:48.462Z,6.73
2022-09-23T23:02:17.969Z,5.83
2022-09-23T23:04:47.306Z,3.40
2022-09-23T23:07:16.476Z,5.00
2022-09-23T23:09:43.807Z,2.57
2022-09-23T23:12:11.212Z,6.47
2022-09-23T23:14:38.584Z,5.87
2022-09-23T23:17:07.667Z,6.23
2022-09-23T23:19:36.368Z,5.50
2022-09-23T23:22:05.094Z,3.33
2022-09-23T23:24:33.692Z,6.13
2022-09-23T23:27:01.078Z,4.53
2022-09-23T23:29:32.055Z,4.70
2022-09-23T23:32:01.847Z,4.00
2022-09-23T23:34:29.486Z,2.80
2022-09-23T23:36:56.908Z,3.87
2022-09-23T23:39:26.174Z,6.73
2022-09-23T23:41:56.309Z,3.27
2022-09-23T23:44:27.258Z,4.03
2022-09-23T23:46:55.076Z,3.20
2022-09-23T23:49:22.575Z,5.60
2022-09-23T23:51:50.302Z,6.63
2022-09-23T23:54:17.862Z,4.33
2022-09-23T23:56:45.319Z,7.47
2022-09-23T23:59:33.461Z,5.30
